sensor_id;sensor_type;location;lat;lon;timestamp;P1;durP1;ratioP1;P2;durP2;ratioP2
74634;SDS011;63140;56.306;43.984;2022-09-09T00:04:05;5.47;;;3.88;;
74634;SDS011;63140;56.306;43.984;2022-09-09T00:06:59;5.47;;;3.80;;
74634;SDS011;63140;56.306;43.984;2022-09-09T00:09:30;5.47;;;4.28;;
74634;SDS011;63140;56.306;43.984;2022-09-09T00:12:22;5.85;;;3.40;;
74634;SDS011;63140;56.306;43.984;2022-09-09T00:15:00;4.90;;;3.57;;
74634;SDS011;63140;56.306;43.984;2022-09-09T00:22:54;8.93;;;4.50;;
74634;SDS011;63140;56.306;43.984;2022-09-09T00:25:28;5.25;;;3.60;;
74634;SDS011;63140;56.306;43.984;2022-09-09T00:27:59;6.72;;;3.85;;
74634;SDS011;63140;56.306;43.984;2022-09-09T00:30:27;5.65;;;3.60;;
74634;SDS011;63140;56.306;43.984;2022-09-09T00:33:02;6.97;;;3.40;;
74634;SDS011;63140;56.306;43.984;2022-09-09T00:35:38;5.53;;;3.60;;
74634;SDS011;63140;56.306;43.984;2022-09-09T00:38:13;4.90;;;3.53;;
74634;SDS011;63140;56.306;43.984;2022-09-09T00:40:49;5.30;;;3.50;;
74634;SDS011;63140;56.306;43.984;2022-09-09T00:57:30;5.00;;;3.20;;
74634;SDS011;63140;56.306;43.984;2022-09-09T00:59:59;4.70;;;3.40;;
74634;SDS011;63140;56.306;43.984;2022-09-09T01:02:56;5.57;;;3.83;;
74634;SDS011;63140;56.306;43.984;2022-09-09T01:05:39;5.10;;;3.08;;
74634;SDS011;63140;56.306;43.984;2022-09-09T01:08:32;4.97;;;3.45;;
74634;SDS011;63140;56.306;43.984;2022-09-09T01:11:02;4.55;;;3.20;;
74634;SDS011;63140;56.306;43.984;2022-09-09T01:13:30;5.07;;;3.35;;
74634;SDS011;63140;56.306;43.984;2022-09-09T01:16:03;5.43;;;3.53;;
74634;SDS011;63140;56.306;43.984;2022-09-09T01:18:37;5.35;;;3.83;;
74634;SDS011;63140;56.306;43.984;2022-09-09T01:28:47;5.95;;;3.90;;
74634;SDS011;63140;56.306;43.984;2022-09-09T01:31:20;5.25;;;3.80;;
74634;SDS011;63140;56.306;43.984;2022-09-09T01:33:51;5.70;;;3.97;;
74634;SDS011;63140;56.306;43.984;2022-09-09T01:36:26;5.97;;;3.60;;
74634;SDS011;63140;56.306;43.984;2022-09-09T01:38:59;5.38;;;3.80;;
74634;SDS011;63140;56.306;43.984;2022-09-09T01:41:25;5.28;;;3.92;;
74634;SDS011;63140;56.306;43.984;2022-09-09T01:44:04;6.32;;;4.25;;
74634;SDS011;63140;56.306;43.984;2022-09-09T01:46:34;5.20;;;4.40;;
74634;SDS011;63140;56.306;43.984;2022-09-09T01:49:02;6.53;;;4.10;;
74634;SDS011;63140;56.306;43.984;2022-09-09T01:51:30;5.22;;;3.88;;
74634;SDS011;63140;56.306;43.984;2022-09-09T01:54:00;4.90;;;3.67;;
74634;SDS011;63140;56.306;43.984;2022-09-09T02:04:43;5.63;;;3.93;;
74634;SDS011;63140;56.306;43.984;2022-09-09T02:09:47;5.25;;;3.40;;
74634;SDS011;63140;56.306;43.984;2022-09-09T02:12:18;6.68;;;3.83;;
74634;SDS011;63140;56.306;43.984;2022-09-09T02:14:55;7.53;;;4.50;;
74634;SDS011;63140;56.306;43.984;2022-09-09T02:17:29;5.90;;;3.55;;
74634;SDS011;63140;56.306;43.984;2022-09-09T02:20:07;6.60;;;3.78;;
74634;SDS011;63140;56.306;43.984;2022-09-09T02:22:48;7.00;;;3.87;;
74634;SDS011;63140;56.306;43.984;2022-09-09T02:25:19;6.40;;;4.13;;
74634;SDS011;63140;56.306;43.984;2022-09-09T02:27:49;5.25;;;4.00;;
74634;SDS011;63140;56.306;43.984;2022-09-09T02:30:17;5.85;;;3.65;;
74634;SDS011;63140;56.306;43.984;2022-09-09T02:32:51;6.78;;;3.75;;
74634;SDS011;63140;56.306;43.984;2022-09-09T02:35:40;5.80;;;3.92;;
74634;SDS011;63140;56.306;43.984;2022-09-09T02:38:10;7.07;;;3.73;;
74634;SDS011;63140;56.306;43.984;2022-09-09T02:40:43;6.67;;;3.63;;
74634;SDS011;63140;56.306;43.984;2022-09-09T02:43:09;5.65;;;3.47;;
74634;SDS011;63140;56.306;43.984;2022-09-09T02:45:43;6.47;;;3.58;;
74634;SDS011;63140;56.306;43.984;2022-09-09T02:48:38;6.13;;;3.35;;
74634;SDS011;63140;56.306;43.984;2022-09-09T02:51:27;4.90;;;3.50;;
74634;SDS011;63140;56.306;43.984;2022-09-09T02:54:10;6.10;;;3.40;;
74634;SDS011;63140;56.306;43.984;2022-09-09T02:56:44;5.60;;;3.40;;
74634;SDS011;63140;56.306;43.984;2022-09-09T02:59:16;8.32;;;4.30;;
74634;SDS011;63140;56.306;43.984;2022-09-09T03:01:42;6.03;;;3.80;;
74634;SDS011;63140;56.306;43.984;2022-09-09T03:04:09;6.03;;;4.28;;
74634;SDS011;63140;56.306;43.984;2022-09-09T03:06:35;5.28;;;3.80;;
74634;SDS011;63140;56.306;43.984;2022-09-09T03:09:12;7.40;;;4.33;;
74634;SDS011;63140;56.306;43.984;2022-09-09T03:11:38;6.90;;;3.85;;
74634;SDS011;63140;56.306;43.984;2022-09-09T03:14:05;5.45;;;4.00;;
74634;SDS011;63140;56.306;43.984;2022-09-09T03:16:31;9.05;;;4.93;;
74634;SDS011;63140;56.306;43.984;2022-09-09T03:19:00;6.53;;;4.15;;
74634;SDS011;63140;56.306;43.984;2022-09-09T03:21:27;7.13;;;3.97;;
74634;SDS011;63140;56.306;43.984;2022-09-09T03:23:53;6.70;;;3.80;;
74634;SDS011;63140;56.306;43.984;2022-09-09T03:26:19;8.00;;;3.90;;
74634;SDS011;63140;56.306;43.984;2022-09-09T03:28:46;5.25;;;3.58;;
74634;SDS011;63140;56.306;43.984;2022-09-09T03:31:16;6.20;;;3.60;;
74634;SDS011;63140;56.306;43.984;2022-09-09T03:33:42;6.18;;;4.07;;
74634;SDS011;63140;56.306;43.984;2022-09-09T03:36:11;5.47;;;3.55;;
74634;SDS011;63140;56.306;43.984;2022-09-09T03:38:37;7.40;;;3.93;;
74634;SDS011;63140;56.306;43.984;2022-09-09T03:41:04;7.22;;;4.28;;
74634;SDS011;63140;56.306;43.984;2022-09-09T03:43:32;7.53;;;3.78;;
74634;SDS011;63140;56.306;43.984;2022-09-09T03:45:58;4.72;;;3.30;;
74634;SDS011;63140;56.306;43.984;2022-09-09T03:48:26;6.13;;;4.25;;
74634;SDS011;63140;56.306;43.984;2022-09-09T03:50:54;6.57;;;3.60;;
74634;SDS011;63140;56.306;43.984;2022-09-09T03:53:22;5.80;;;3.20;;
74634;SDS011;63140;56.306;43.984;2022-09-09T03:55:51;5.15;;;3.42;;
74634;SDS011;63140;56.306;43.984;2022-09-09T03:58:24;5.68;;;3.47;;
74634;SDS011;63140;56.306;43.984;2022-09-09T04:03:28;4.78;;;3.20;;
74634;SDS011;63140;56.306;43.984;2022-09-09T04:05:55;5.20;;;2.93;;
74634;SDS011;63140;56.306;43.984;2022-09-09T04:08:25;5.73;;;3.80;;
74634;SDS011;63140;56.306;43.984;2022-09-09T04:10:51;5.45;;;3.40;;
74634;SDS011;63140;56.306;43.984;2022-09-09T04:13:18;5.45;;;3.95;;
74634;SDS011;63140;56.306;43.984;2022-09-09T04:15:52;5.43;;;3.60;;
74634;SDS011;63140;56.306;43.984;2022-09-09T04:18:23;7.38;;;3.92;;
74634;SDS011;63140;56.306;43.984;2022-09-09T04:20:50;5.07;;;3.63;;
74634;SDS011;63140;56.306;43.984;2022-09-09T04:23:19;5.53;;;3.23;;
74634;SDS011;63140;56.306;43.984;2022-09-09T04:25:50;9.32;;;4.18;;
74634;SDS011;63140;56.306;43.984;2022-09-09T04:28:18;6.68;;;3.30;;
74634;SDS011;63140;56.306;43.984;2022-09-09T04:30:46;5.18;;;3.42;;
74634;SDS011;63140;56.306;43.984;2022-09-09T04:33:13;5.25;;;3.50;;
74634;SDS011;63140;56.306;43.984;2022-09-09T04:35:43;5.10;;;3.33;;
74634;SDS011;63140;56.306;43.984;2022-09-09T04:38:14;6.00;;;3.07;;
74634;SDS011;63140;56.306;43.984;2022-09-09T04:40:45;4.90;;;2.92;;
74634;SDS011;63140;56.306;43.984;2022-09-09T04:43:14;4.70;;;2.80;;
74634;SDS011;63140;56.306;43.984;2022-09-09T04:45:42;5.75;;;3.28;;
74634;SDS011;63140;56.306;43.984;2022-09-09T04:48:08;5.63;;;3.10;;
74634;SDS011;63140;56.306;43.984;2022-09-09T04:50:35;9.52;;;3.70;;
74634;SDS011;63140;56.306;43.984;2022-09-09T04:53:01;7.10;;;3.00;;
74634;SDS011;63140;56.306;43.984;2022-09-09T04:55:29;3.90;;;2.80;;
74634;SDS011;63140;56.306;43.984;2022-09-09T04:57:55;9.25;;;3.65;;
74634;SDS011;63140;56.306;43.984;2022-09-09T05:00:24;5.28;;;3.45;;
74634;SDS011;63140;56.306;43.984;2022-09-09T05:02:53;4.25;;;3.10;;
74634;SDS011;63140;56.306;43.984;2022-09-09T05:05:20;6.85;;;2.80;;
74634;SDS011;63140;56.306;43.984;2022-09-09T05:07:48;4.90;;;3.03;;
74634;SDS011;63140;56.306;43.984;2022-09-09T05:10:14;6.00;;;3.00;;
74634;SDS011;63140;56.306;43.984;2022-09-09T05:12:43;9.23;;;2.83;;
74634;SDS011;63140;56.306;43.984;2022-09-09T05:15:17;6.25;;;2.20;;
74634;SDS011;63140;56.306;43.984;2022-09-09T05:17:43;6.35;;;3.08;;
74634;SDS011;63140;56.306;43.984;2022-09-09T05:20:09;4.18;;;2.10;;
74634;SDS011;63140;56.306;43.984;2022-09-09T05:22:35;5.32;;;2.60;;
74634;SDS011;63140;56.306;43.984;2022-09-09T05:25:02;6.63;;;2.60;;
74634;SDS011;63140;56.306;43.984;2022-09-09T05:27:28;4.80;;;2.20;;
74634;SDS011;63140;56.306;43.984;2022-09-09T05:29:57;6.10;;;2.65;;
74634;SDS011;63140;56.306;43.984;2022-09-09T05:32:23;4.25;;;2.38;;
74634;SDS011;63140;56.306;43.984;2022-09-09T05:34:50;6.07;;;2.47;;
74634;SDS011;63140;56.306;43.984;2022-09-09T05:37:18;5.18;;;1.85;;
74634;SDS011;63140;56.306;43.984;2022-09-09T05:39:44;7.03;;;2.37;;
74634;SDS011;63140;56.306;43.984;2022-09-09T05:42:11;6.37;;;2.37;;
74634;SDS011;63140;56.306;43.984;2022-09-09T05:44:37;6.78;;;2.60;;
74634;SDS011;63140;56.306;43.984;2022-09-09T05:47:04;5.55;;;3.30;;
74634;SDS011;63140;56.306;43.984;2022-09-09T05:49:30;4.43;;;2.22;;
74634;SDS011;63140;56.306;43.984;2022-09-09T05:51:58;5.30;;;2.95;;
74634;SDS011;63140;56.306;43.984;2022-09-09T05:54:24;6.15;;;2.20;;
74634;SDS011;63140;56.306;43.984;2022-09-09T05:56:53;4.47;;;1.60;;
74634;SDS011;63140;56.306;43.984;2022-09-09T05:59:19;3.60;;;2.15;;
74634;SDS011;63140;56.306;43.984;2022-09-09T06:01:46;5.13;;;2.45;;
74634;SDS011;63140;56.306;43.984;2022-09-09T06:04:21;9.05;;;2.92;;
74634;SDS011;63140;56.306;43.984;2022-09-09T06:06:48;5.90;;;2.03;;
74634;SDS011;63140;56.306;43.984;2022-09-09T06:09:17;3.67;;;1.70;;
74634;SDS011;63140;56.306;43.984;2022-09-09T06:11:43;3.70;;;2.00;;
74634;SDS011;63140;56.306;43.984;2022-09-09T06:14:10;9.50;;;2.50;;
74634;SDS011;63140;56.306;43.984;2022-09-09T06:16:37;6.22;;;2.15;;
74634;SDS011;63140;56.306;43.984;2022-09-09T06:19:06;6.22;;;2.45;;
74634;SDS011;63140;56.306;43.984;2022-09-09T06:21:34;4.70;;;2.15;;
74634;SDS011;63140;56.306;43.984;2022-09-09T06:24:06;3.80;;;2.33;;
74634;SDS011;63140;56.306;43.984;2022-09-09T06:26:36;6.55;;;2.60;;
74634;SDS011;63140;56.306;43.984;2022-09-09T06:29:09;7.43;;;2.30;;
74634;SDS011;63140;56.306;43.984;2022-09-09T06:31:36;5.53;;;2.30;;
74634;SDS011;63140;56.306;43.984;2022-09-09T06:34:19;9.32;;;2.15;;
74634;SDS011;63140;56.306;43.984;2022-09-09T06:36:48;6.72;;;2.53;;
74634;SDS011;63140;56.306;43.984;2022-09-09T06:39:15;9.38;;;2.42;;
74634;SDS011;63140;56.306;43.984;2022-09-09T06:41:42;6.70;;;2.40;;
74634;SDS011;63140;56.306;43.984;2022-09-09T06:44:18;7.82;;;3.22;;
74634;SDS011;63140;56.306;43.984;2022-09-09T06:46:45;5.28;;;2.30;;
74634;SDS011;63140;56.306;43.984;2022-09-09T06:49:15;6.03;;;2.10;;
74634;SDS011;63140;56.306;43.984;2022-09-09T06:51:41;4.60;;;1.67;;
74634;SDS011;63140;56.306;43.984;2022-09-09T06:54:12;4.57;;;1.92;;
74634;SDS011;63140;56.306;43.984;2022-09-09T06:56:41;4.03;;;2.22;;
74634;SDS011;63140;56.306;43.984;2022-09-09T06:59:19;5.18;;;2.22;;
74634;SDS011;63140;56.306;43.984;2022-09-09T07:01:46;9.13;;;2.67;;
74634;SDS011;63140;56.306;43.984;2022-09-09T07:04:14;3.90;;;1.90;;
74634;SDS011;63140;56.306;43.984;2022-09-09T07:06:44;6.40;;;2.13;;
74634;SDS011;63140;56.306;43.984;2022-09-09T07:09:23;4.03;;;2.43;;
74634;SDS011;63140;56.306;43.984;2022-09-09T07:11:51;7.17;;;3.33;;
74634;SDS011;63140;56.306;43.984;2022-09-09T07:14:22;4.72;;;2.70;;
74634;SDS011;63140;56.306;43.984;2022-09-09T07:16:54;5.15;;;2.00;;
74634;SDS011;63140;56.306;43.984;2022-09-09T07:19:23;5.30;;;2.53;;
74634;SDS011;63140;56.306;43.984;2022-09-09T07:21:51;5.82;;;2.08;;
74634;SDS011;63140;56.306;43.984;2022-09-09T07:24:19;4.43;;;1.80;;
74634;SDS011;63140;56.306;43.984;2022-09-09T07:26:46;4.75;;;2.30;;
74634;SDS011;63140;56.306;43.984;2022-09-09T07:29:12;11.82;;;3.38;;
74634;SDS011;63140;56.306;43.984;2022-09-09T07:31:41;5.70;;;2.70;;
74634;SDS011;63140;56.306;43.984;2022-09-09T07:34:11;6.07;;;2.17;;
74634;SDS011;63140;56.306;43.984;2022-09-09T07:36:39;3.83;;;2.25;;
74634;SDS011;63140;56.306;43.984;2022-09-09T07:39:08;6.93;;;1.65;;
74634;SDS011;63140;56.306;43.984;2022-09-09T07:41:43;4.00;;;2.78;;
74634;SDS011;63140;56.306;43.984;2022-09-09T07:44:16;6.55;;;2.20;;
74634;SDS011;63140;56.306;43.984;2022-09-09T07:46:48;5.47;;;2.00;;
74634;SDS011;63140;56.306;43.984;2022-09-09T07:49:19;4.18;;;1.98;;
74634;SDS011;63140;56.306;43.984;2022-09-09T07:51:46;5.30;;;2.00;;
74634;SDS011;63140;56.306;43.984;2022-09-09T07:54:15;11.00;;;1.80;;
74634;SDS011;63140;56.306;43.984;2022-09-09T07:56:47;5.13;;;2.20;;
74634;SDS011;63140;56.306;43.984;2022-09-09T07:59:15;6.57;;;2.10;;
74634;SDS011;63140;56.306;43.984;2022-09-09T08:01:44;4.80;;;2.15;;
74634;SDS011;63140;56.306;43.984;2022-09-09T08:04:16;5.35;;;2.80;;
74634;SDS011;63140;56.306;43.984;2022-09-09T08:06:45;4.95;;;2.40;;
74634;SDS011;63140;56.306;43.984;2022-09-09T08:09:15;7.70;;;2.63;;
74634;SDS011;63140;56.306;43.984;2022-09-09T08:11:41;3.47;;;1.75;;
74634;SDS011;63140;56.306;43.984;2022-09-09T08:14:09;4.93;;;2.25;;
74634;SDS011;63140;56.306;43.984;2022-09-09T08:16:41;4.95;;;2.97;;
74634;SDS011;63140;56.306;43.984;2022-09-09T08:19:10;3.30;;;1.97;;
74634;SDS011;63140;56.306;43.984;2022-09-09T08:21:38;7.47;;;2.30;;
74634;SDS011;63140;56.306;43.984;2022-09-09T08:24:06;5.07;;;2.13;;
74634;SDS011;63140;56.306;43.984;2022-09-09T08:26:38;5.95;;;2.60;;
74634;SDS011;63140;56.306;43.984;2022-09-09T08:29:10;4.38;;;2.17;;
74634;SDS011;63140;56.306;43.984;2022-09-09T08:31:59;7.20;;;2.00;;
74634;SDS011;63140;56.306;43.984;2022-09-09T08:34:26;7.75;;;2.13;;
74634;SDS011;63140;56.306;43.984;2022-09-09T08:36:55;4.50;;;1.80;;
74634;SDS011;63140;56.306;43.984;2022-09-09T08:39:28;3.85;;;2.20;;
74634;SDS011;63140;56.306;43.984;2022-09-09T08:44:59;3.43;;;2.30;;
74634;SDS011;63140;56.306;43.984;2022-09-09T08:50:30;4.40;;;1.75;;
74634;SDS011;63140;56.306;43.984;2022-09-09T08:58:40;5.53;;;2.40;;
74634;SDS011;63140;56.306;43.984;2022-09-09T09:12:18;5.33;;;2.10;;
74634;SDS011;63140;56.306;43.984;2022-09-09T09:14:48;3.90;;;2.13;;
74634;SDS011;63140;56.306;43.984;2022-09-09T09:19:44;3.58;;;2.33;;
74634;SDS011;63140;56.306;43.984;2022-09-09T09:22:19;4.80;;;1.95;;
74634;SDS011;63140;56.306;43.984;2022-09-09T09:25:05;5.13;;;2.03;;
74634;SDS011;63140;56.306;43.984;2022-09-09T09:27:58;4.60;;;2.38;;
74634;SDS011;63140;56.306;43.984;2022-09-09T09:30:29;11.23;;;3.67;;
74634;SDS011;63140;56.306;43.984;2022-09-09T09:33:15;4.75;;;2.30;;
74634;SDS011;63140;56.306;43.984;2022-09-09T09:36:04;4.78;;;2.40;;
74634;SDS011;63140;56.306;43.984;2022-09-09T09:38:34;4.07;;;2.70;;
74634;SDS011;63140;56.306;43.984;2022-09-09T09:41:02;8.90;;;2.60;;
74634;SDS011;63140;56.306;43.984;2022-09-09T09:43:30;4.50;;;1.60;;
74634;SDS011;63140;56.306;43.984;2022-09-09T09:46:05;3.20;;;1.55;;
74634;SDS011;63140;56.306;43.984;2022-09-09T09:48:55;3.45;;;1.98;;
74634;SDS011;63140;56.306;43.984;2022-09-09T09:51:26;3.22;;;2.17;;
74634;SDS011;63140;56.306;43.984;2022-09-09T09:53:54;4.82;;;1.77;;
74634;SDS011;63140;56.306;43.984;2022-09-09T09:56:32;3.80;;;2.85;;
74634;SDS011;63140;56.306;43.984;2022-09-09T09:59:01;5.55;;;2.72;;
74634;SDS011;63140;56.306;43.984;2022-09-09T10:01:33;3.72;;;1.90;;
74634;SDS011;63140;56.306;43.984;2022-09-09T10:04:14;6.47;;;3.40;;
74634;SDS011;63140;56.306;43.984;2022-09-09T10:06:42;4.23;;;2.23;;
74634;SDS011;63140;56.306;43.984;2022-09-09T10:09:27;3.08;;;2.30;;
74634;SDS011;63140;56.306;43.984;2022-09-09T10:20:40;3.13;;;1.65;;
74634;SDS011;63140;56.306;43.984;2022-09-09T10:35:10;4.10;;;2.30;;
74634;SDS011;63140;56.306;43.984;2022-09-09T10:40:19;3.55;;;3.03;;
74634;SDS011;63140;56.306;43.984;2022-09-09T10:45:44;8.15;;;7.50;;
74634;SDS011;63140;56.306;43.984;2022-09-09T10:56:37;4.80;;;1.73;;
74634;SDS011;63140;56.306;43.984;2022-09-09T11:01:50;2.90;;;1.30;;
74634;SDS011;63140;56.306;43.984;2022-09-09T11:04:39;5.97;;;1.48;;
74634;SDS011;63140;56.306;43.984;2022-09-09T11:07:10;3.75;;;2.70;;
74634;SDS011;63140;56.306;43.984;2022-09-09T11:09:42;5.78;;;2.13;;
74634;SDS011;63140;56.306;43.984;2022-09-09T11:12:17;7.47;;;6.88;;
74634;SDS011;63140;56.306;43.984;2022-09-09T11:14:47;6.10;;;3.97;;
74634;SDS011;63140;56.306;43.984;2022-09-09T11:17:20;6.78;;;6.13;;
74634;SDS011;63140;56.306;43.984;2022-09-09T11:19:49;5.53;;;3.80;;
74634;SDS011;63140;56.306;43.984;2022-09-09T11:22:35;6.38;;;5.75;;
74634;SDS011;63140;56.306;43.984;2022-09-09T11:27:44;4.63;;;4.23;;
74634;SDS011;63140;56.306;43.984;2022-09-09T11:44:37;5.45;;;4.75;;
74634;SDS011;63140;56.306;43.984;2022-09-09T11:56:02;6.07;;;2.03;;
74634;SDS011;63140;56.306;43.984;2022-09-09T11:58:37;3.00;;;1.30;;
74634;SDS011;63140;56.306;43.984;2022-09-09T12:01:16;4.85;;;1.73;;
74634;SDS011;63140;56.306;43.984;2022-09-09T12:12:34;2.95;;;1.70;;
74634;SDS011;63140;56.306;43.984;2022-09-09T12:20:13;3.20;;;1.53;;
74634;SDS011;63140;56.306;43.984;2022-09-09T12:22:47;5.77;;;2.60;;
74634;SDS011;63140;56.306;43.984;2022-09-09T12:25:18;3.95;;;2.75;;
74634;SDS011;63140;56.306;43.984;2022-09-09T12:27:59;5.75;;;5.25;;
74634;SDS011;63140;56.306;43.984;2022-09-09T12:33:13;4.05;;;1.77;;
74634;SDS011;63140;56.306;43.984;2022-09-09T12:35:43;3.10;;;1.85;;
74634;SDS011;63140;56.306;43.984;2022-09-09T12:38:21;3.67;;;2.42;;
74634;SDS011;63140;56.306;43.984;2022-09-09T12:40:58;3.50;;;1.92;;
74634;SDS011;63140;56.306;43.984;2022-09-09T12:43:25;3.40;;;1.63;;
74634;SDS011;63140;56.306;43.984;2022-09-09T12:48:39;3.70;;;2.50;;
74634;SDS011;63140;56.306;43.984;2022-09-09T12:51:17;3.75;;;1.80;;
74634;SDS011;63140;56.306;43.984;2022-09-09T12:53:50;4.80;;;2.40;;
74634;SDS011;63140;56.306;43.984;2022-09-09T12:56:35;5.82;;;2.63;;
74634;SDS011;63140;56.306;43.984;2022-09-09T12:59:01;6.57;;;1.92;;
74634;SDS011;63140;56.306;43.984;2022-09-09T13:01:45;5.47;;;1.80;;
74634;SDS011;63140;56.306;43.984;2022-09-09T13:04:21;7.05;;;2.80;;
74634;SDS011;63140;56.306;43.984;2022-09-09T13:06:48;4.75;;;2.38;;
74634;SDS011;63140;56.306;43.984;2022-09-09T13:09:14;6.90;;;2.97;;
74634;SDS011;63140;56.306;43.984;2022-09-09T13:11:41;4.13;;;1.90;;
74634;SDS011;63140;56.306;43.984;2022-09-09T13:14:16;3.60;;;3.20;;
74634;SDS011;63140;56.306;43.984;2022-09-09T13:16:55;4.47;;;2.22;;
74634;SDS011;63140;56.306;43.984;2022-09-09T13:19:23;4.45;;;3.28;;
74634;SDS011;63140;56.306;43.984;2022-09-09T13:21:54;5.47;;;3.85;;
74634;SDS011;63140;56.306;43.984;2022-09-09T13:24:30;5.10;;;2.80;;
74634;SDS011;63140;56.306;43.984;2022-09-09T13:26:59;9.27;;;4.75;;
74634;SDS011;63140;56.306;43.984;2022-09-09T13:29:27;4.72;;;4.32;;
74634;SDS011;63140;56.306;43.984;2022-09-09T13:31:54;4.40;;;3.35;;
74634;SDS011;63140;56.306;43.984;2022-09-09T13:34:29;5.22;;;4.72;;
74634;SDS011;63140;56.306;43.984;2022-09-09T13:37:17;5.10;;;4.00;;
74634;SDS011;63140;56.306;43.984;2022-09-09T13:39:51;5.50;;;3.90;;
74634;SDS011;63140;56.306;43.984;2022-09-09T13:42:24;4.60;;;2.63;;
74634;SDS011;63140;56.306;43.984;2022-09-09T13:44:55;5.00;;;3.83;;
74634;SDS011;63140;56.306;43.984;2022-09-09T13:47:28;2.83;;;1.88;;
74634;SDS011;63140;56.306;43.984;2022-09-09T13:49:58;4.15;;;2.08;;
74634;SDS011;63140;56.306;43.984;2022-09-09T13:52:34;10.30;;;5.10;;
74634;SDS011;63140;56.306;43.984;2022-09-09T13:55:00;21.88;;;10.38;;
74634;SDS011;63140;56.306;43.984;2022-09-09T13:57:27;19.00;;;11.40;;
74634;SDS011;63140;56.306;43.984;2022-09-09T13:59:53;16.43;;;8.60;;
74634;SDS011;63140;56.306;43.984;2022-09-09T14:02:22;11.45;;;5.72;;
74634;SDS011;63140;56.306;43.984;2022-09-09T14:04:49;5.78;;;2.50;;
74634;SDS011;63140;56.306;43.984;2022-09-09T14:07:20;4.45;;;1.90;;
74634;SDS011;63140;56.306;43.984;2022-09-09T14:09:46;3.92;;;1.08;;
74634;SDS011;63140;56.306;43.984;2022-09-09T14:12:15;4.28;;;1.42;;
74634;SDS011;63140;56.306;43.984;2022-09-09T14:14:41;3.40;;;1.33;;
74634;SDS011;63140;56.306;43.984;2022-09-09T14:17:08;8.82;;;1.45;;
74634;SDS011;63140;56.306;43.984;2022-09-09T14:19:34;4.13;;;1.77;;
74634;SDS011;63140;56.306;43.984;2022-09-09T14:22:03;8.70;;;3.33;;
74634;SDS011;63140;56.306;43.984;2022-09-09T14:24:29;6.25;;;1.95;;
74634;SDS011;63140;56.306;43.984;2022-09-09T14:26:55;5.57;;;1.88;;
74634;SDS011;63140;56.306;43.984;2022-09-09T14:29:21;4.72;;;1.98;;
74634;SDS011;63140;56.306;43.984;2022-09-09T14:31:47;5.82;;;1.50;;
74634;SDS011;63140;56.306;43.984;2022-09-09T14:34:13;5.17;;;1.33;;
74634;SDS011;63140;56.306;43.984;2022-09-09T14:36:45;8.38;;;3.30;;
74634;SDS011;63140;56.306;43.984;2022-09-09T14:39:14;4.40;;;2.22;;
74634;SDS011;63140;56.306;43.984;2022-09-09T14:41:40;4.22;;;2.42;;
74634;SDS011;63140;56.306;43.984;2022-09-09T14:44:06;6.13;;;1.95;;
74634;SDS011;63140;56.306;43.984;2022-09-09T14:46:31;3.27;;;1.47;;
74634;SDS011;63140;56.306;43.984;2022-09-09T14:48:58;3.78;;;1.50;;
74634;SDS011;63140;56.306;43.984;2022-09-09T14:51:24;3.55;;;1.70;;
74634;SDS011;63140;56.306;43.984;2022-09-09T14:53:54;3.15;;;1.58;;
74634;SDS011;63140;56.306;43.984;2022-09-09T14:56:24;5.82;;;2.00;;
74634;SDS011;63140;56.306;43.984;2022-09-09T14:58:53;9.32;;;1.73;;
74634;SDS011;63140;56.306;43.984;2022-09-09T15:01:20;3.35;;;1.88;;
74634;SDS011;63140;56.306;43.984;2022-09-09T15:03:51;3.17;;;1.70;;
74634;SDS011;63140;56.306;43.984;2022-09-09T15:06:18;5.50;;;2.22;;
74634;SDS011;63140;56.306;43.984;2022-09-09T15:08:46;5.25;;;1.98;;
74634;SDS011;63140;56.306;43.984;2022-09-09T15:11:12;6.13;;;2.15;;
74634;SDS011;63140;56.306;43.984;2022-09-09T15:13:39;3.95;;;1.52;;
74634;SDS011;63140;56.306;43.984;2022-09-09T15:16:07;6.13;;;1.75;;
74634;SDS011;63140;56.306;43.984;2022-09-09T15:18:41;3.70;;;1.70;;
74634;SDS011;63140;56.306;43.984;2022-09-09T15:21:09;5.23;;;2.57;;
74634;SDS011;63140;56.306;43.984;2022-09-09T15:23:36;5.07;;;1.90;;
74634;SDS011;63140;56.306;43.984;2022-09-09T15:26:02;5.50;;;2.20;;
74634;SDS011;63140;56.306;43.984;2022-09-09T15:28:29;5.10;;;1.98;;
74634;SDS011;63140;56.306;43.984;2022-09-09T15:30:57;5.88;;;2.38;;
74634;SDS011;63140;56.306;43.984;2022-09-09T15:33:25;5.28;;;1.98;;
74634;SDS011;63140;56.306;43.984;2022-09-09T15:35:51;6.40;;;2.10;;
74634;SDS011;63140;56.306;43.984;2022-09-09T15:38:17;4.30;;;1.65;;
74634;SDS011;63140;56.306;43.984;2022-09-09T15:40:44;4.15;;;1.65;;
74634;SDS011;63140;56.306;43.984;2022-09-09T15:43:11;5.25;;;2.05;;
74634;SDS011;63140;56.306;43.984;2022-09-09T15:45:38;8.77;;;1.73;;
74634;SDS011;63140;56.306;43.984;2022-09-09T15:48:04;3.25;;;1.30;;
74634;SDS011;63140;56.306;43.984;2022-09-09T15:50:30;4.50;;;1.75;;
74634;SDS011;63140;56.306;43.984;2022-09-09T15:52:58;3.60;;;1.73;;
74634;SDS011;63140;56.306;43.984;2022-09-09T15:55:24;3.92;;;2.00;;
74634;SDS011;63140;56.306;43.984;2022-09-09T15:57:50;3.70;;;1.85;;
74634;SDS011;63140;56.306;43.984;2022-09-09T16:00:20;4.93;;;1.80;;
74634;SDS011;63140;56.306;43.984;2022-09-09T16:02:48;5.35;;;1.98;;
74634;SDS011;63140;56.306;43.984;2022-09-09T16:05:14;3.40;;;2.22;;
74634;SDS011;63140;56.306;43.984;2022-09-09T16:07:40;6.37;;;1.70;;
74634;SDS011;63140;56.306;43.984;2022-09-09T16:10:08;7.10;;;1.97;;
74634;SDS011;63140;56.306;43.984;2022-09-09T16:12:34;6.57;;;1.80;;
74634;SDS011;63140;56.306;43.984;2022-09-09T16:15:00;7.38;;;2.55;;
74634;SDS011;63140;56.306;43.984;2022-09-09T16:17:26;3.25;;;1.60;;
74634;SDS011;63140;56.306;43.984;2022-09-09T16:19:53;4.90;;;1.50;;
74634;SDS011;63140;56.306;43.984;2022-09-09T16:22:19;4.53;;;1.30;;
74634;SDS011;63140;56.306;43.984;2022-09-09T16:24:45;3.30;;;1.75;;
74634;SDS011;63140;56.306;43.984;2022-09-09T16:27:11;4.33;;;1.50;;
74634;SDS011;63140;56.306;43.984;2022-09-09T16:29:37;4.43;;;1.92;;
74634;SDS011;63140;56.306;43.984;2022-09-09T16:32:03;4.72;;;1.75;;
74634;SDS011;63140;56.306;43.984;2022-09-09T16:34:29;2.90;;;1.40;;
74634;SDS011;63140;56.306;43.984;2022-09-09T16:36:55;5.15;;;1.60;;
74634;SDS011;63140;56.306;43.984;2022-09-09T16:39:21;4.10;;;2.17;;
74634;SDS011;63140;56.306;43.984;2022-09-09T16:41:47;6.18;;;2.08;;
74634;SDS011;63140;56.306;43.984;2022-09-09T16:44:14;4.45;;;1.90;;
74634;SDS011;63140;56.306;43.984;2022-09-09T16:46:44;5.17;;;1.93;;
74634;SDS011;63140;56.306;43.984;2022-09-09T16:49:12;3.70;;;1.80;;
74634;SDS011;63140;56.306;43.984;2022-09-09T16:51:41;5.82;;;2.05;;
74634;SDS011;63140;56.306;43.984;2022-09-09T16:54:12;5.97;;;2.17;;
74634;SDS011;63140;56.306;43.984;2022-09-09T16:56:40;5.50;;;1.63;;
74634;SDS011;63140;56.306;43.984;2022-09-09T16:59:13;4.03;;;1.67;;
74634;SDS011;63140;56.306;43.984;2022-09-09T17:01:44;5.78;;;1.77;;
74634;SDS011;63140;56.306;43.984;2022-09-09T17:04:15;3.70;;;1.98;;
74634;SDS011;63140;56.306;43.984;2022-09-09T17:06:46;4.63;;;1.92;;
74634;SDS011;63140;56.306;43.984;2022-09-09T17:09:14;3.93;;;1.90;;
74634;SDS011;63140;56.306;43.984;2022-09-09T17:11:41;4.20;;;1.53;;
74634;SDS011;63140;56.306;43.984;2022-09-09T17:14:07;3.42;;;1.60;;
74634;SDS011;63140;56.306;43.984;2022-09-09T17:16:36;4.13;;;2.20;;
74634;SDS011;63140;56.306;43.984;2022-09-09T17:19:04;5.78;;;1.83;;
74634;SDS011;63140;56.306;43.984;2022-09-09T17:21:31;5.95;;;1.90;;
74634;SDS011;63140;56.306;43.984;2022-09-09T17:23:58;3.10;;;1.67;;